Terminal Aerodrome Forecast
Issued by NWS Shreveport, LA

Home | Current Version | Previous Version | Text Only | Print | Product List | Glossary On
Versions: 1 2 3 4 5 6 7 8 9 10 11 12 13 14 15 16 17
000
FTUS44 KSHV 290528
TAFSHV
TAF
KSHV 290528Z 2906/3006 15012KT P6SM SCT030 SCT250
      TEMPO 2906/2909 BKN020
     FM290900 15010KT P6SM OVC015
     FM291500 15012G20KT P6SM BKN025
     FM291700 16016G26KT P6SM SCT035 BKN080 BKN250
     FM292100 17014G24KT P6SM VCTS BKN040CB
     FM300300 19012KT P6SM BKN025=

USA.gov is the U.S. government's official web portal to all federal, state and local government web resources and services.